sensor_id;sensor_type;location;lat;lon;timestamp;temperature;humidity
23160;DHT22;11748;50.844;4.396;2022-11-27T00:01:10;9.30;99.90
23160;DHT22;11748;50.844;4.396;2022-11-27T00:03:37;9.40;99.90
23160;DHT22;11748;50.844;4.396;2022-11-27T00:06:03;9.40;99.90
23160;DHT22;11748;50.844;4.396;2022-11-27T00:08:30;9.40;99.90
23160;DHT22;11748;50.844;4.396;2022-11-27T00:10:56;9.30;99.90
23160;DHT22;11748;50.844;4.396;2022-11-27T00:13:21;9.40;99.90
23160;DHT22;11748;50.844;4.396;2022-11-27T00:15:47;9.40;99.90
23160;DHT22;11748;50.844;4.396;2022-11-27T00:18:13;9.50;99.90
23160;DHT22;11748;50.844;4.396;2022-11-27T00:20:39;9.50;99.90
23160;DHT22;11748;50.844;4.396;2022-11-27T00:23:04;9.50;99.90
23160;DHT22;11748;50.844;4.396;2022-11-27T00:25:30;9.50;99.90
23160;DHT22;11748;50.844;4.396;2022-11-27T00:27:56;9.50;99.90
23160;DHT22;11748;50.844;4.396;2022-11-27T00:30:22;9.60;99.90
23160;DHT22;11748;50.844;4.396;2022-11-27T00:32:47;9.50;99.90
23160;DHT22;11748;50.844;4.396;2022-11-27T00:35:13;9.50;99.90
23160;DHT22;11748;50.844;4.396;2022-11-27T00:37:39;9.40;99.90
23160;DHT22;11748;50.844;4.396;2022-11-27T00:40:05;9.40;99.90
23160;DHT22;11748;50.844;4.396;2022-11-27T00:42:31;9.40;99.90
23160;DHT22;11748;50.844;4.396;2022-11-27T00:44:56;9.50;99.90
23160;DHT22;11748;50.844;4.396;2022-11-27T00:47:22;9.30;99.90
23160;DHT22;11748;50.844;4.396;2022-11-27T00:49:48;9.30;99.90
23160;DHT22;11748;50.844;4.396;2022-11-27T00:52:14;9.40;99.90
23160;DHT22;11748;50.844;4.396;2022-11-27T00:54:39;9.40;99.90
23160;DHT22;11748;50.844;4.396;2022-11-27T00:57:05;9.50;99.90
23160;DHT22;11748;50.844;4.396;2022-11-27T00:59:31;9.60;99.90
23160;DHT22;11748;50.844;4.396;2022-11-27T01:01:57;9.50;99.90
23160;DHT22;11748;50.844;4.396;2022-11-27T01:04:22;9.60;99.90
23160;DHT22;11748;50.844;4.396;2022-11-27T01:06:48;9.60;99.90
23160;DHT22;11748;50.844;4.396;2022-11-27T01:09:14;9.50;99.90
23160;DHT22;11748;50.844;4.396;2022-11-27T01:11:41;9.50;99.90
23160;DHT22;11748;50.844;4.396;2022-11-27T01:14:14;9.50;99.90
23160;DHT22;11748;50.844;4.396;2022-11-27T01:16:41;9.50;99.90
23160;DHT22;11748;50.844;4.396;2022-11-27T01:19:08;9.50;99.90
23160;DHT22;11748;50.844;4.396;2022-11-27T01:21:34;9.40;99.90
23160;DHT22;11748;50.844;4.396;2022-11-27T01:24:01;9.40;99.90
23160;DHT22;11748;50.844;4.396;2022-11-27T01:26:27;9.50;99.90
23160;DHT22;11748;50.844;4.396;2022-11-27T01:28:54;9.50;99.90
23160;DHT22;11748;50.844;4.396;2022-11-27T01:31:23;9.60;99.90
23160;DHT22;11748;50.844;4.396;2022-11-27T01:33:55;9.60;99.90
23160;DHT22;11748;50.844;4.396;2022-11-27T01:36:21;9.50;99.90
23160;DHT22;11748;50.844;4.396;2022-11-27T01:38:47;9.40;99.90
23160;DHT22;11748;50.844;4.396;2022-11-27T01:41:33;9.50;99.90
23160;DHT22;11748;50.844;4.396;2022-11-27T01:47:12;9.60;99.90
23160;DHT22;11748;50.844;4.396;2022-11-27T01:49:43;9.50;99.90
23160;DHT22;11748;50.844;4.396;2022-11-27T01:52:11;9.40;99.90
23160;DHT22;11748;50.844;4.396;2022-11-27T01:54:57;9.50;99.90
23160;DHT22;11748;50.844;4.396;2022-11-27T01:57:28;9.50;99.90
23160;DHT22;11748;50.844;4.396;2022-11-27T01:59:56;9.60;99.90
23160;DHT22;11748;50.844;4.396;2022-11-27T02:02:22;9.40;99.90
23160;DHT22;11748;50.844;4.396;2022-11-27T02:04:48;9.30;99.90
23160;DHT22;11748;50.844;4.396;2022-11-27T02:07:14;9.40;99.90
23160;DHT22;11748;50.844;4.396;2022-11-27T02:09:40;9.30;99.90
23160;DHT22;11748;50.844;4.396;2022-11-27T02:12:17;9.30;99.90
23160;DHT22;11748;50.844;4.396;2022-11-27T02:18:13;9.30;99.90
23160;DHT22;11748;50.844;4.396;2022-11-27T02:21:05;9.50;99.90
23160;DHT22;11748;50.844;4.396;2022-11-27T02:23:57;9.50;99.90
23160;DHT22;11748;50.844;4.396;2022-11-27T02:26:39;9.50;99.90
23160;DHT22;11748;50.844;4.396;2022-11-27T02:29:13;9.40;99.90
23160;DHT22;11748;50.844;4.396;2022-11-27T02:42:40;9.50;99.90
23160;DHT22;11748;50.844;4.396;2022-11-27T02:45:12;9.50;99.90
23160;DHT22;11748;50.844;4.396;2022-11-27T02:47:41;9.50;99.90
23160;DHT22;11748;50.844;4.396;2022-11-27T02:50:12;9.50;99.90
23160;DHT22;11748;50.844;4.396;2022-11-27T02:52:40;9.40;99.90
23160;DHT22;11748;50.844;4.396;2022-11-27T02:55:10;9.40;99.90
23160;DHT22;11748;50.844;4.396;2022-11-27T02:57:39;9.50;99.90
23160;DHT22;11748;50.844;4.396;2022-11-27T03:00:07;9.50;99.90
23160;DHT22;11748;50.844;4.396;2022-11-27T03:02:38;9.60;99.90
23160;DHT22;11748;50.844;4.396;2022-11-27T03:05:10;9.60;99.90
23160;DHT22;11748;50.844;4.396;2022-11-27T03:07:46;9.60;99.90
23160;DHT22;11748;50.844;4.396;2022-11-27T03:10:25;9.70;99.90
23160;DHT22;11748;50.844;4.396;2022-11-27T03:12:51;9.50;99.90
23160;DHT22;11748;50.844;4.396;2022-11-27T03:15:17;9.40;99.90
23160;DHT22;11748;50.844;4.396;2022-11-27T03:22:47;9.50;99.90
23160;DHT22;11748;50.844;4.396;2022-11-27T03:25:12;9.70;99.90
23160;DHT22;11748;50.844;4.396;2022-11-27T03:27:47;9.70;99.90
23160;DHT22;11748;50.844;4.396;2022-11-27T03:30:13;9.70;99.90
23160;DHT22;11748;50.844;4.396;2022-11-27T03:32:39;9.80;99.90
23160;DHT22;11748;50.844;4.396;2022-11-27T03:35:07;9.80;99.90
23160;DHT22;11748;50.844;4.396;2022-11-27T03:37:34;9.70;99.90
23160;DHT22;11748;50.844;4.396;2022-11-27T03:40:00;9.70;99.90
23160;DHT22;11748;50.844;4.396;2022-11-27T03:53:01;9.70;99.90
23160;DHT22;11748;50.844;4.396;2022-11-27T03:55:48;9.70;99.90
23160;DHT22;11748;50.844;4.396;2022-11-27T03:58:34;9.70;99.90
23160;DHT22;11748;50.844;4.396;2022-11-27T04:01:02;9.70;99.90
23160;DHT22;11748;50.844;4.396;2022-11-27T04:03:29;9.80;99.90
23160;DHT22;11748;50.844;4.396;2022-11-27T04:05:55;9.70;99.90
23160;DHT22;11748;50.844;4.396;2022-11-27T04:08:22;9.80;99.90
23160;DHT22;11748;50.844;4.396;2022-11-27T04:10:47;9.80;99.90
23160;DHT22;11748;50.844;4.396;2022-11-27T04:13:14;9.90;99.90
23160;DHT22;11748;50.844;4.396;2022-11-27T04:15:39;9.80;99.90
23160;DHT22;11748;50.844;4.396;2022-11-27T04:18:05;9.80;99.90
23160;DHT22;11748;50.844;4.396;2022-11-27T04:20:31;9.70;99.90
23160;DHT22;11748;50.844;4.396;2022-11-27T04:22:57;9.80;99.90
23160;DHT22;11748;50.844;4.396;2022-11-27T04:25:22;9.80;99.90
23160;DHT22;11748;50.844;4.396;2022-11-27T04:27:49;9.70;99.90
23160;DHT22;11748;50.844;4.396;2022-11-27T04:30:15;9.70;99.90
23160;DHT22;11748;50.844;4.396;2022-11-27T04:32:41;9.70;99.90
23160;DHT22;11748;50.844;4.396;2022-11-27T04:35:07;9.80;99.90
23160;DHT22;11748;50.844;4.396;2022-11-27T04:37:33;9.50;99.90
23160;DHT22;11748;50.844;4.396;2022-11-27T04:39:59;9.60;99.90
23160;DHT22;11748;50.844;4.396;2022-11-27T04:42:26;9.70;99.90
23160;DHT22;11748;50.844;4.396;2022-11-27T04:44:52;9.70;99.90
23160;DHT22;11748;50.844;4.396;2022-11-27T04:47:17;9.60;99.90
23160;DHT22;11748;50.844;4.396;2022-11-27T04:49:43;9.70;99.90
23160;DHT22;11748;50.844;4.396;2022-11-27T04:52:09;9.80;99.90
23160;DHT22;11748;50.844;4.396;2022-11-27T04:54:37;9.80;99.90
23160;DHT22;11748;50.844;4.396;2022-11-27T04:57:03;9.80;99.90
23160;DHT22;11748;50.844;4.396;2022-11-27T04:59:29;9.80;99.90
23160;DHT22;11748;50.844;4.396;2022-11-27T05:01:54;9.80;99.90
23160;DHT22;11748;50.844;4.396;2022-11-27T05:04:20;9.80;99.90
23160;DHT22;11748;50.844;4.396;2022-11-27T05:06:47;9.70;99.90
23160;DHT22;11748;50.844;4.396;2022-11-27T05:09:12;9.70;99.90
23160;DHT22;11748;50.844;4.396;2022-11-27T05:11:38;9.70;99.90
23160;DHT22;11748;50.844;4.396;2022-11-27T05:14:04;9.60;99.90
23160;DHT22;11748;50.844;4.396;2022-11-27T05:16:50;9.60;99.90
23160;DHT22;11748;50.844;4.396;2022-11-27T05:19:17;9.50;99.90
23160;DHT22;11748;50.844;4.396;2022-11-27T05:21:43;9.40;99.90
23160;DHT22;11748;50.844;4.396;2022-11-27T05:24:10;9.50;99.90
23160;DHT22;11748;50.844;4.396;2022-11-27T05:26:36;9.60;99.90
23160;DHT22;11748;50.844;4.396;2022-11-27T05:29:02;9.50;99.90
23160;DHT22;11748;50.844;4.396;2022-11-27T05:31:28;9.60;99.90
23160;DHT22;11748;50.844;4.396;2022-11-27T05:33:54;9.50;99.90
23160;DHT22;11748;50.844;4.396;2022-11-27T05:36:20;9.60;99.90
23160;DHT22;11748;50.844;4.396;2022-11-27T05:38:46;9.60;99.90
23160;DHT22;11748;50.844;4.396;2022-11-27T05:41:12;9.50;99.90
23160;DHT22;11748;50.844;4.396;2022-11-27T05:43:38;9.40;99.90
23160;DHT22;11748;50.844;4.396;2022-11-27T05:46:09;9.50;99.90
23160;DHT22;11748;50.844;4.396;2022-11-27T05:48:35;9.50;99.90
23160;DHT22;11748;50.844;4.396;2022-11-27T05:51:02;9.50;99.90
23160;DHT22;11748;50.844;4.396;2022-11-27T05:53:28;9.40;99.90
23160;DHT22;11748;50.844;4.396;2022-11-27T05:55:54;9.40;99.90
23160;DHT22;11748;50.844;4.396;2022-11-27T05:58:20;9.30;99.90
23160;DHT22;11748;50.844;4.396;2022-11-27T06:00:45;9.40;99.90
23160;DHT22;11748;50.844;4.396;2022-11-27T06:03:11;9.50;99.90
23160;DHT22;11748;50.844;4.396;2022-11-27T06:05:40;9.40;99.90
23160;DHT22;11748;50.844;4.396;2022-11-27T06:08:06;9.30;99.90
23160;DHT22;11748;50.844;4.396;2022-11-27T06:10:32;9.40;99.90
23160;DHT22;11748;50.844;4.396;2022-11-27T06:12:58;9.40;99.90
23160;DHT22;11748;50.844;4.396;2022-11-27T06:15:24;9.40;99.90
23160;DHT22;11748;50.844;4.396;2022-11-27T06:17:50;9.40;99.90
23160;DHT22;11748;50.844;4.396;2022-11-27T06:20:16;9.30;99.90
23160;DHT22;11748;50.844;4.396;2022-11-27T06:22:42;9.40;99.90
23160;DHT22;11748;50.844;4.396;2022-11-27T06:25:08;9.40;99.90
23160;DHT22;11748;50.844;4.396;2022-11-27T06:27:34;9.50;99.90
23160;DHT22;11748;50.844;4.396;2022-11-27T06:30:01;9.30;99.90
23160;DHT22;11748;50.844;4.396;2022-11-27T06:32:27;9.30;99.90
23160;DHT22;11748;50.844;4.396;2022-11-27T06:34:53;9.40;99.90
23160;DHT22;11748;50.844;4.396;2022-11-27T06:37:19;9.50;99.90
23160;DHT22;11748;50.844;4.396;2022-11-27T06:39:47;9.60;99.90
23160;DHT22;11748;50.844;4.396;2022-11-27T06:42:15;9.60;99.90
23160;DHT22;11748;50.844;4.396;2022-11-27T06:44:41;9.60;99.90
23160;DHT22;11748;50.844;4.396;2022-11-27T06:47:07;9.60;99.90
23160;DHT22;11748;50.844;4.396;2022-11-27T06:49:32;9.60;99.90
23160;DHT22;11748;50.844;4.396;2022-11-27T06:51:59;9.60;99.90
23160;DHT22;11748;50.844;4.396;2022-11-27T06:54:24;9.60;99.90
23160;DHT22;11748;50.844;4.396;2022-11-27T06:56:50;9.70;99.90
23160;DHT22;11748;50.844;4.396;2022-11-27T06:59:17;9.70;99.90
23160;DHT22;11748;50.844;4.396;2022-11-27T07:01:43;9.70;99.90
23160;DHT22;11748;50.844;4.396;2022-11-27T07:04:13;9.70;99.90
23160;DHT22;11748;50.844;4.396;2022-11-27T07:06:39;9.70;99.90
23160;DHT22;11748;50.844;4.396;2022-11-27T07:09:06;9.70;99.90
23160;DHT22;11748;50.844;4.396;2022-11-27T07:11:32;9.80;99.90
23160;DHT22;11748;50.844;4.396;2022-11-27T07:14:00;9.80;99.90
23160;DHT22;11748;50.844;4.396;2022-11-27T07:16:30;9.80;99.90
23160;DHT22;11748;50.844;4.396;2022-11-27T07:18:58;9.80;99.90
23160;DHT22;11748;50.844;4.396;2022-11-27T07:21:25;9.90;99.90
23160;DHT22;11748;50.844;4.396;2022-11-27T07:23:50;9.90;99.90
23160;DHT22;11748;50.844;4.396;2022-11-27T07:26:21;9.90;99.90
23160;DHT22;11748;50.844;4.396;2022-11-27T07:28:47;9.80;99.90
23160;DHT22;11748;50.844;4.396;2022-11-27T07:31:15;9.90;99.90
23160;DHT22;11748;50.844;4.396;2022-11-27T07:33:42;9.80;99.90
23160;DHT22;11748;50.844;4.396;2022-11-27T07:36:17;9.70;99.90
23160;DHT22;11748;50.844;4.396;2022-11-27T07:38:44;9.70;99.90
23160;DHT22;11748;50.844;4.396;2022-11-27T07:41:10;9.80;99.90
23160;DHT22;11748;50.844;4.396;2022-11-27T07:43:36;9.70;99.90
23160;DHT22;11748;50.844;4.396;2022-11-27T07:46:13;9.80;99.90
23160;DHT22;11748;50.844;4.396;2022-11-27T07:48:39;9.80;99.90
23160;DHT22;11748;50.844;4.396;2022-11-27T07:51:06;9.80;99.90
23160;DHT22;11748;50.844;4.396;2022-11-27T07:53:37;9.70;99.90
23160;DHT22;11748;50.844;4.396;2022-11-27T07:56:07;9.80;99.90
23160;DHT22;11748;50.844;4.396;2022-11-27T07:58:33;9.80;99.90
23160;DHT22;11748;50.844;4.396;2022-11-27T08:00:59;9.70;99.90
23160;DHT22;11748;50.844;4.396;2022-11-27T08:03:25;9.70;99.90
23160;DHT22;11748;50.844;4.396;2022-11-27T08:05:51;9.70;99.90
23160;DHT22;11748;50.844;4.396;2022-11-27T08:08:16;9.80;99.90
23160;DHT22;11748;50.844;4.396;2022-11-27T08:10:42;9.70;99.90
23160;DHT22;11748;50.844;4.396;2022-11-27T08:13:08;9.70;99.90
23160;DHT22;11748;50.844;4.396;2022-11-27T08:15:35;9.70;99.90
23160;DHT22;11748;50.844;4.396;2022-11-27T08:18:01;9.70;99.90
23160;DHT22;11748;50.844;4.396;2022-11-27T08:20:26;9.70;99.90
23160;DHT22;11748;50.844;4.396;2022-11-27T08:22:52;9.80;99.90
23160;DHT22;11748;50.844;4.396;2022-11-27T08:25:18;9.80;99.90
23160;DHT22;11748;50.844;4.396;2022-11-27T08:27:44;9.80;99.90
23160;DHT22;11748;50.844;4.396;2022-11-27T08:30:13;9.70;99.90
23160;DHT22;11748;50.844;4.396;2022-11-27T08:32:40;9.80;99.90
23160;DHT22;11748;50.844;4.396;2022-11-27T08:35:07;9.80;99.90
23160;DHT22;11748;50.844;4.396;2022-11-27T08:37:32;9.70;99.90
23160;DHT22;11748;50.844;4.396;2022-11-27T08:39:58;9.70;99.90
23160;DHT22;11748;50.844;4.396;2022-11-27T08:42:24;9.80;99.90
23160;DHT22;11748;50.844;4.396;2022-11-27T08:44:50;9.80;99.90
23160;DHT22;11748;50.844;4.396;2022-11-27T08:47:15;9.90;99.90
23160;DHT22;11748;50.844;4.396;2022-11-27T08:49:42;9.70;99.90
23160;DHT22;11748;50.844;4.396;2022-11-27T08:52:09;9.80;99.90
23160;DHT22;11748;50.844;4.396;2022-11-27T08:54:35;9.90;99.90
23160;DHT22;11748;50.844;4.396;2022-11-27T08:57:01;9.70;99.90
23160;DHT22;11748;50.844;4.396;2022-11-27T08:59:27;9.60;99.90
23160;DHT22;11748;50.844;4.396;2022-11-27T09:01:53;9.70;99.90
23160;DHT22;11748;50.844;4.396;2022-11-27T09:04:19;9.80;99.90
23160;DHT22;11748;50.844;4.396;2022-11-27T09:06:45;9.90;99.90
23160;DHT22;11748;50.844;4.396;2022-11-27T09:09:13;9.90;99.90
23160;DHT22;11748;50.844;4.396;2022-11-27T09:11:39;10.00;99.90
23160;DHT22;11748;50.844;4.396;2022-11-27T09:14:06;10.00;99.90
23160;DHT22;11748;50.844;4.396;2022-11-27T09:16:33;10.00;99.90
23160;DHT22;11748;50.844;4.396;2022-11-27T09:19:00;9.90;99.90
23160;DHT22;11748;50.844;4.396;2022-11-27T09:21:28;9.90;99.90
23160;DHT22;11748;50.844;4.396;2022-11-27T09:24:00;9.70;99.90
23160;DHT22;11748;50.844;4.396;2022-11-27T09:26:27;9.70;99.90
23160;DHT22;11748;50.844;4.396;2022-11-27T09:28:56;9.70;99.90
23160;DHT22;11748;50.844;4.396;2022-11-27T09:31:22;9.80;99.90
23160;DHT22;11748;50.844;4.396;2022-11-27T09:33:48;9.80;99.90
23160;DHT22;11748;50.844;4.396;2022-11-27T09:36:17;9.70;99.90
23160;DHT22;11748;50.844;4.396;2022-11-27T09:38:43;9.70;99.90
23160;DHT22;11748;50.844;4.396;2022-11-27T09:43:44;9.70;99.90
23160;DHT22;11748;50.844;4.396;2022-11-27T09:46:39;9.70;99.90
23160;DHT22;11748;50.844;4.396;2022-11-27T09:49:07;9.80;99.90
23160;DHT22;11748;50.844;4.396;2022-11-27T09:51:46;9.70;99.90
23160;DHT22;11748;50.844;4.396;2022-11-27T09:54:36;9.70;99.90
23160;DHT22;11748;50.844;4.396;2022-11-27T09:57:03;9.60;99.90
23160;DHT22;11748;50.844;4.396;2022-11-27T09:59:43;9.70;99.90
23160;DHT22;11748;50.844;4.396;2022-11-27T10:02:16;9.70;99.90
23160;DHT22;11748;50.844;4.396;2022-11-27T10:04:43;9.70;99.90
23160;DHT22;11748;50.844;4.396;2022-11-27T10:15:14;9.80;99.90
23160;DHT22;11748;50.844;4.396;2022-11-27T10:17:49;10.00;99.90
23160;DHT22;11748;50.844;4.396;2022-11-27T10:20:32;10.10;99.90
23160;DHT22;11748;50.844;4.396;2022-11-27T10:25:53;10.10;99.90
23160;DHT22;11748;50.844;4.396;2022-11-27T10:29:08;10.00;99.90
23160;DHT22;11748;50.844;4.396;2022-11-27T10:31:12;10.00;99.90
23160;DHT22;11748;50.844;4.396;2022-11-27T10:33:47;10.10;99.90
23160;DHT22;11748;50.844;4.396;2022-11-27T10:36:18;10.10;99.90
23160;DHT22;11748;50.844;4.396;2022-11-27T10:38:47;10.10;99.90
23160;DHT22;11748;50.844;4.396;2022-11-27T10:41:16;10.10;99.90
23160;DHT22;11748;50.844;4.396;2022-11-27T10:43:44;10.20;99.90
23160;DHT22;11748;50.844;4.396;2022-11-27T10:46:34;10.40;99.90
23160;DHT22;11748;50.844;4.396;2022-11-27T10:49:01;10.50;99.90
23160;DHT22;11748;50.844;4.396;2022-11-27T10:51:33;10.40;99.90
23160;DHT22;11748;50.844;4.396;2022-11-27T10:54:01;10.40;99.90
23160;DHT22;11748;50.844;4.396;2022-11-27T10:59:22;10.60;99.90
23160;DHT22;11748;50.844;4.396;2022-11-27T11:01:50;10.70;99.90
23160;DHT22;11748;50.844;4.396;2022-11-27T11:04:26;10.80;99.90
23160;DHT22;11748;50.844;4.396;2022-11-27T11:06:52;10.90;99.90
23160;DHT22;11748;50.844;4.396;2022-11-27T11:09:28;10.80;99.90
23160;DHT22;11748;50.844;4.396;2022-11-27T11:12:06;10.80;99.90
23160;DHT22;11748;50.844;4.396;2022-11-27T11:14:32;10.70;99.90
23160;DHT22;11748;50.844;4.396;2022-11-27T11:16:57;10.80;99.90
23160;DHT22;11748;50.844;4.396;2022-11-27T11:19:34;10.90;99.90
23160;DHT22;11748;50.844;4.396;2022-11-27T11:22:12;10.90;99.90
23160;DHT22;11748;50.844;4.396;2022-11-27T11:24:39;11.00;99.90
23160;DHT22;11748;50.844;4.396;2022-11-27T11:27:15;11.10;99.90
23160;DHT22;11748;50.844;4.396;2022-11-27T11:29:48;11.00;99.90
23160;DHT22;11748;50.844;4.396;2022-11-27T11:34:57;10.90;99.90
23160;DHT22;11748;50.844;4.396;2022-11-27T11:37:37;11.10;99.90
23160;DHT22;11748;50.844;4.396;2022-11-27T11:42:48;11.40;99.90
23160;DHT22;11748;50.844;4.396;2022-11-27T11:45:20;11.60;99.90
23160;DHT22;11748;50.844;4.396;2022-11-27T11:47:52;11.70;99.90
23160;DHT22;11748;50.844;4.396;2022-11-27T11:53:37;11.70;99.90
23160;DHT22;11748;50.844;4.396;2022-11-27T11:56:26;11.70;99.90
23160;DHT22;11748;50.844;4.396;2022-11-27T11:59:01;11.70;99.90
23160;DHT22;11748;50.844;4.396;2022-11-27T12:01:53;11.60;99.90
23160;DHT22;11748;50.844;4.396;2022-11-27T12:25:36;11.40;99.90
23160;DHT22;11748;50.844;4.396;2022-11-27T12:42:03;11.20;99.90
23160;DHT22;11748;50.844;4.396;2022-11-27T12:44:59;11.20;99.90
23160;DHT22;11748;50.844;4.396;2022-11-27T12:50:14;11.30;99.90
23160;DHT22;11748;50.844;4.396;2022-11-27T12:52:44;11.20;99.90
23160;DHT22;11748;50.844;4.396;2022-11-27T12:55:14;11.20;99.90
23160;DHT22;11748;50.844;4.396;2022-11-27T12:58:03;11.20;99.90
23160;DHT22;11748;50.844;4.396;2022-11-27T13:00:35;11.00;99.90
23160;DHT22;11748;50.844;4.396;2022-11-27T13:05:52;11.20;99.90
23160;DHT22;11748;50.844;4.396;2022-11-27T13:09:06;11.10;99.90
23160;DHT22;11748;50.844;4.396;2022-11-27T13:11:29;11.10;99.90
23160;DHT22;11748;50.844;4.396;2022-11-27T13:16:39;11.20;99.90
23160;DHT22;11748;50.844;4.396;2022-11-27T13:19:21;11.30;99.90
23160;DHT22;11748;50.844;4.396;2022-11-27T13:21:52;11.20;99.90
23160;DHT22;11748;50.844;4.396;2022-11-27T13:24:20;11.10;99.90
23160;DHT22;11748;50.844;4.396;2022-11-27T13:27:24;11.20;99.90
23160;DHT22;11748;50.844;4.396;2022-11-27T13:30:08;11.10;99.90
23160;DHT22;11748;50.844;4.396;2022-11-27T13:32:40;11.10;99.90
23160;DHT22;11748;50.844;4.396;2022-11-27T13:38:05;11.10;99.90
23160;DHT22;11748;50.844;4.396;2022-11-27T13:40:37;11.00;99.90
23160;DHT22;11748;50.844;4.396;2022-11-27T13:43:12;11.00;99.90
23160;DHT22;11748;50.844;4.396;2022-11-27T13:45:42;10.90;99.90
23160;DHT22;11748;50.844;4.396;2022-11-27T13:48:32;10.90;99.90
23160;DHT22;11748;50.844;4.396;2022-11-27T13:50:59;11.00;99.90
23160;DHT22;11748;50.844;4.396;2022-11-27T13:53:39;11.00;99.90
23160;DHT22;11748;50.844;4.396;2022-11-27T13:56:07;11.10;99.90
23160;DHT22;11748;50.844;4.396;2022-11-27T13:58:38;11.20;99.90
23160;DHT22;11748;50.844;4.396;2022-11-27T14:01:22;11.20;99.90
23160;DHT22;11748;50.844;4.396;2022-11-27T14:03:48;11.10;99.90
23160;DHT22;11748;50.844;4.396;2022-11-27T14:06:25;11.10;99.90
23160;DHT22;11748;50.844;4.396;2022-11-27T14:09:04;11.10;99.90
23160;DHT22;11748;50.844;4.396;2022-11-27T14:11:34;11.20;99.90
23160;DHT22;11748;50.844;4.396;2022-11-27T14:14:22;11.20;99.90
23160;DHT22;11748;50.844;4.396;2022-11-27T14:16:59;11.20;99.90
23160;DHT22;11748;50.844;4.396;2022-11-27T14:19:33;11.20;99.90
23160;DHT22;11748;50.844;4.396;2022-11-27T14:22:01;11.20;99.90
23160;DHT22;11748;50.844;4.396;2022-11-27T14:24:41;11.30;99.90
23160;DHT22;11748;50.844;4.396;2022-11-27T14:27:20;11.40;99.90
23160;DHT22;11748;50.844;4.396;2022-11-27T14:29:46;11.00;99.90
23160;DHT22;11748;50.844;4.396;2022-11-27T14:32:14;11.00;99.90
23160;DHT22;11748;50.844;4.396;2022-11-27T14:34:40;11.10;99.90
23160;DHT22;11748;50.844;4.396;2022-11-27T14:37:17;11.20;99.90
23160;DHT22;11748;50.844;4.396;2022-11-27T14:39:44;11.10;99.90
23160;DHT22;11748;50.844;4.396;2022-11-27T14:42:20;11.20;99.90
23160;DHT22;11748;50.844;4.396;2022-11-27T14:44:46;11.10;99.90
23160;DHT22;11748;50.844;4.396;2022-11-27T14:47:18;11.20;99.90
23160;DHT22;11748;50.844;4.396;2022-11-27T14:49:45;11.20;99.90
23160;DHT22;11748;50.844;4.396;2022-11-27T14:52:14;11.20;99.90
23160;DHT22;11748;50.844;4.396;2022-11-27T14:54:43;11.10;99.90
23160;DHT22;11748;50.844;4.396;2022-11-27T14:57:23;11.10;99.90
23160;DHT22;11748;50.844;4.396;2022-11-27T15:00:33;11.10;99.90
23160;DHT22;11748;50.844;4.396;2022-11-27T15:02:52;11.10;99.90
23160;DHT22;11748;50.844;4.396;2022-11-27T15:05:26;11.10;99.90
23160;DHT22;11748;50.844;4.396;2022-11-27T15:07:55;11.10;99.90
23160;DHT22;11748;50.844;4.396;2022-11-27T15:12:57;11.00;99.90
23160;DHT22;11748;50.844;4.396;2022-11-27T15:15:28;11.00;99.90
23160;DHT22;11748;50.844;4.396;2022-11-27T15:17:57;11.00;99.90
23160;DHT22;11748;50.844;4.396;2022-11-27T15:20:42;11.00;99.90
23160;DHT22;11748;50.844;4.396;2022-11-27T15:23:16;11.10;99.90
23160;DHT22;11748;50.844;4.396;2022-11-27T15:28:31;11.10;99.90
23160;DHT22;11748;50.844;4.396;2022-11-27T15:30:59;11.00;99.90
23160;DHT22;11748;50.844;4.396;2022-11-27T15:33:32;10.90;99.90
23160;DHT22;11748;50.844;4.396;2022-11-27T15:36:19;10.90;99.90
23160;DHT22;11748;50.844;4.396;2022-11-27T15:38:45;10.80;99.90
23160;DHT22;11748;50.844;4.396;2022-11-27T15:41:25;10.80;99.90
23160;DHT22;11748;50.844;4.396;2022-11-27T15:43:52;10.80;99.90
23160;DHT22;11748;50.844;4.396;2022-11-27T15:46:23;10.80;99.90
23160;DHT22;11748;50.844;4.396;2022-11-27T15:48:50;10.80;99.90
23160;DHT22;11748;50.844;4.396;2022-11-27T15:51:16;10.80;99.90
23160;DHT22;11748;50.844;4.396;2022-11-27T15:53:41;10.70;99.90
23160;DHT22;11748;50.844;4.396;2022-11-27T15:56:07;10.80;99.90
23160;DHT22;11748;50.844;4.396;2022-11-27T15:58:33;10.80;99.90
23160;DHT22;11748;50.844;4.396;2022-11-27T16:01:00;10.80;99.90
23160;DHT22;11748;50.844;4.396;2022-11-27T16:03:27;10.80;99.90
23160;DHT22;11748;50.844;4.396;2022-11-27T16:05:52;10.70;99.90
23160;DHT22;11748;50.844;4.396;2022-11-27T16:08:18;10.70;99.90
23160;DHT22;11748;50.844;4.396;2022-11-27T16:10:44;10.80;99.90
23160;DHT22;11748;50.844;4.396;2022-11-27T16:13:09;10.70;99.90
23160;DHT22;11748;50.844;4.396;2022-11-27T16:15:35;10.70;99.90
23160;DHT22;11748;50.844;4.396;2022-11-27T16:18:01;10.70;99.90
23160;DHT22;11748;50.844;4.396;2022-11-27T16:20:27;10.60;99.90
23160;DHT22;11748;50.844;4.396;2022-11-27T16:22:53;10.70;99.90
23160;DHT22;11748;50.844;4.396;2022-11-27T16:25:19;10.70;99.90
23160;DHT22;11748;50.844;4.396;2022-11-27T16:27:44;10.60;99.90
23160;DHT22;11748;50.844;4.396;2022-11-27T16:30:11;10.60;99.90
23160;DHT22;11748;50.844;4.396;2022-11-27T16:32:39;10.60;99.90
23160;DHT22;11748;50.844;4.396;2022-11-27T16:35:06;10.70;99.90
23160;DHT22;11748;50.844;4.396;2022-11-27T16:37:32;10.60;99.90
23160;DHT22;11748;50.844;4.396;2022-11-27T16:39:58;10.60;99.90
23160;DHT22;11748;50.844;4.396;2022-11-27T16:42:41;10.60;99.90
23160;DHT22;11748;50.844;4.396;2022-11-27T16:45:07;10.60;99.90
23160;DHT22;11748;50.844;4.396;2022-11-27T16:47:37;10.60;99.90
23160;DHT22;11748;50.844;4.396;2022-11-27T16:50:21;10.60;99.90
23160;DHT22;11748;50.844;4.396;2022-11-27T16:53:19;10.60;99.90
23160;DHT22;11748;50.844;4.396;2022-11-27T16:55:46;10.60;99.90
23160;DHT22;11748;50.844;4.396;2022-11-27T16:58:12;10.60;99.90
23160;DHT22;11748;50.844;4.396;2022-11-27T17:00:38;10.60;99.90
23160;DHT22;11748;50.844;4.396;2022-11-27T17:03:11;10.60;99.90
23160;DHT22;11748;50.844;4.396;2022-11-27T17:05:36;10.60;99.90
23160;DHT22;11748;50.844;4.396;2022-11-27T17:08:03;10.60;99.90
23160;DHT22;11748;50.844;4.396;2022-11-27T17:10:28;10.50;99.90
23160;DHT22;11748;50.844;4.396;2022-11-27T17:12:54;10.60;99.90
23160;DHT22;11748;50.844;4.396;2022-11-27T17:15:20;10.60;99.90
23160;DHT22;11748;50.844;4.396;2022-11-27T17:17:46;10.60;99.90
23160;DHT22;11748;50.844;4.396;2022-11-27T17:20:12;10.50;99.90
23160;DHT22;11748;50.844;4.396;2022-11-27T17:22:38;10.50;99.90
23160;DHT22;11748;50.844;4.396;2022-11-27T17:25:04;10.50;99.90
23160;DHT22;11748;50.844;4.396;2022-11-27T17:27:31;10.50;99.90
23160;DHT22;11748;50.844;4.396;2022-11-27T17:29:56;10.50;99.90
23160;DHT22;11748;50.844;4.396;2022-11-27T17:32:22;10.50;99.90
23160;DHT22;11748;50.844;4.396;2022-11-27T17:35:01;10.50;99.90
23160;DHT22;11748;50.844;4.396;2022-11-27T17:37:50;10.50;99.90
23160;DHT22;11748;50.844;4.396;2022-11-27T17:40:19;10.40;99.90
23160;DHT22;11748;50.844;4.396;2022-11-27T17:42:45;10.40;99.90
23160;DHT22;11748;50.844;4.396;2022-11-27T17:45:14;10.40;99.90